Time;durP1;ratioP1;P1;durP2;ratioP2;P2;SDS_P1;SDS_P2;PMS_P1;PMS_P2;Temp;Humidity;BMP_temperature;BMP_pressure;BME280_temperature;BME280_humidity;BME280_pressure;Samples;Min_cycle;Max_cycle;Signal;HPM_P1;HPM_P2
2021/10/07 05:37:34;;;;;;;16.38;8.27;;;;;;;14.80;70.05;101093.44;5724024;23;99978;-78
2021/10/07 05:50:47;;;;;;;10.45;7.63;;;;;;;14.98;70.13;101112.97;5776919;23;99040;-80
2021/10/07 05:53:13;;;;;;;13.52;8.20;;;;;;;15.03;69.67;101109.22;5183539;23;99900;-83
2021/10/07 05:55:38;;;;;;;14.65;9.27;;;;;;;15.09;69.67;101111.63;4967176;28;99655;-81
2021/10/07 05:58:04;;;;;;;11.98;8.27;;;;;;;15.06;69.67;101113.53;5149575;23;98858;-79
2021/10/07 06:00:30;;;;;;;15.82;8.70;;;;;;;14.97;69.65;101117.41;4929349;28;96861;-79
2021/10/07 06:03:51;;;;;;;12.10;9.40;;;;;;;14.92;69.79;101122.00;4912114;28;101068;-79
2021/10/07 06:06:16;;;;;;;10.30;8.77;;;;;;;14.92;69.87;101127.31;4946952;28;101999;-79
2021/10/07 06:11:31;;;;;;;11.98;7.85;;;;;;;15.05;69.76;101136.47;5020455;23;99025;-81
2021/10/07 06:13:58;;;;;;;15.85;8.70;;;;;;;15.05;69.90;101144.41;4976331;28;96975;-81
2021/10/07 06:19:24;;;;;;;19.48;9.50;;;;;;;15.12;69.60;101147.66;5067391;23;98887;-80
2021/10/07 06:21:52;;;;;;;15.40;9.32;;;;;;;15.04;69.71;101147.09;4934387;28;96670;-80
2021/10/07 06:24:17;;;;;;;13.60;8.70;;;;;;;15.03;69.78;101140.97;4923165;28;100504;-79
2021/10/07 06:32:17;;;;;;;14.98;9.82;;;;;;;15.08;69.79;101146.94;5176428;23;98866;-80
2021/10/07 06:34:43;;;;;;;18.20;10.00;;;;;;;15.09;69.72;101145.16;4919387;28;100994;-82
2021/10/07 06:40:40;;;;;;;13.57;10.45;;;;;;;15.28;69.79;101158.50;4903247;28;97088;-79
2021/10/07 06:43:06;;;;;;;16.02;10.05;;;;;;;15.37;69.15;101158.13;4894511;28;96464;-79
2021/10/07 06:45:31;;;;;;;19.20;10.23;;;;;;;15.46;69.15;101156.91;4890087;28;97670;-80
2021/10/07 06:47:57;;;;;;;15.18;10.43;;;;;;;15.49;68.83;101154.97;4876391;28;99300;-81
2021/10/07 06:50:22;;;;;;;16.08;10.60;;;;;;;15.58;68.96;101153.75;4880605;28;96670;-80
2021/10/07 06:52:48;;;;;;;25.70;11.88;;;;;;;15.66;68.76;101151.63;4888701;28;96671;-81
2021/10/07 07:20:58;;;;;;;16.75;12.18;;;;;;;15.71;68.97;101180.59;5909956;23;98440;-84
2021/10/07 07:23:24;;;;;;;31.50;12.95;;;;;;;15.67;68.79;101182.47;4924389;28;97910;-84
2021/10/07 07:25:49;;;;;;;18.23;12.68;;;;;;;15.73;68.87;101179.59;4905375;28;96816;-84
2021/10/07 07:28:15;;;;;;;20.33;12.30;;;;;;;15.68;69.06;101184.25;4920244;28;97310;-85
2021/10/07 07:30:41;;;;;;;26.55;12.40;;;;;;;15.67;68.78;101185.09;4894759;28;101305;-84
2021/10/07 07:33:07;;;;;;;14.80;12.05;;;;;;;15.73;68.43;101187.53;4926452;28;97405;-85
2021/10/07 07:35:34;;;;;;;13.95;10.63;;;;;;;15.74;68.67;101196.34;4907507;28;97188;-84
2021/10/07 07:38:01;;;;;;;16.55;10.45;;;;;;;15.71;68.72;101199.13;4928174;28;96891;-84
2021/10/07 07:40:27;;;;;;;24.77;12.35;;;;;;;15.76;68.63;101207.72;4918933;28;99645;-83
2021/10/07 07:42:53;;;;;;;19.52;11.15;;;;;;;15.72;68.54;101198.19;4913252;28;99999;-85
2021/10/07 07:45:18;;;;;;;16.88;11.80;;;;;;;15.71;69.04;101194.69;4928925;28;97207;-85
2021/10/07 07:47:44;;;;;;;16.80;11.55;;;;;;;15.74;68.66;101209.59;4931563;28;96780;-84
2021/10/07 07:50:11;;;;;;;14.73;10.98;;;;;;;15.66;68.99;101203.72;4907346;28;100781;-85
2021/10/07 07:52:37;;;;;;;15.10;12.18;;;;;;;15.59;69.12;101209.25;4927925;28;98515;-82
2021/10/07 07:55:05;;;;;;;17.42;11.48;;;;;;;15.65;69.37;101209.91;4904890;28;97258;-81
2021/10/07 07:57:30;;;;;;;16.85;12.50;;;;;;;15.53;70.64;101211.28;4937660;28;97197;-82
2021/10/07 07:59:55;;;;;;;19.73;11.77;;;;;;;15.52;70.79;101212.22;4914046;28;99523;-86
2021/10/07 08:02:21;;;;;;;20.77;12.50;;;;;;;15.54;70.49;101213.88;4917010;28;99118;-85
2021/10/07 08:04:46;;;;;;;17.90;13.65;;;;;;;15.49;71.76;101215.84;4943704;28;96668;-86
2021/10/07 08:07:13;;;;;;;21.58;13.50;;;;;;;15.49;71.40;101213.19;4916500;28;96795;-79
2021/10/07 08:09:43;;;;;;;21.40;13.35;;;;;;;15.55;71.01;101210.28;4913316;28;100890;-78
2021/10/07 08:12:12;;;;;;;16.35;13.65;;;;;;;15.56;71.21;101217.31;4919524;28;101033;-84
2021/10/07 08:14:41;;;;;;;17.48;14.35;;;;;;;15.71;70.76;101215.00;4902839;28;97360;-83
2021/10/07 08:17:07;;;;;;;20.65;15.95;;;;;;;15.83;70.29;101225.94;4913343;28;96965;-84
2021/10/07 08:19:32;;;;;;;25.17;17.05;;;;;;;15.97;69.80;101228.03;4909856;28;99330;-84
2021/10/07 08:21:58;;;;;;;24.70;17.05;;;;;;;16.18;69.00;101218.28;4910739;28;99727;-85
2021/10/07 08:24:24;;;;;;;20.63;17.38;;;;;;;16.46;68.03;101220.59;4922927;28;97074;-85
2021/10/07 08:26:50;;;;;;;25.95;16.65;;;;;;;16.78;67.21;101218.31;4908466;28;97484;-86
2021/10/07 08:29:16;;;;;;;22.13;17.42;;;;;;;17.47;65.56;101230.97;4911681;28;100406;-85
2021/10/07 08:31:42;;;;;;;22.98;17.38;;;;;;;17.56;64.96;101232.34;4915427;28;97883;-85
2021/10/07 08:34:07;;;;;;;24.65;18.48;;;;;;;17.38;65.20;101229.63;4918546;28;96767;-84
2021/10/07 08:36:34;;;;;;;24.70;17.83;;;;;;;17.34;65.38;101235.19;4916065;28;98290;-85
2021/10/07 08:38:59;;;;;;;24.88;18.63;;;;;;;17.30;65.43;101222.97;4928090;28;97527;-84
2021/10/07 08:41:25;;;;;;;26.55;18.88;;;;;;;17.27;65.59;101231.09;4930655;28;101705;-84
2021/10/07 08:43:52;;;;;;;28.17;20.08;;;;;;;17.20;65.40;101228.72;4932915;28;97226;-84
2021/10/07 08:46:18;;;;;;;23.73;18.50;;;;;;;17.32;65.66;101229.06;4924382;28;96919;-85
2021/10/07 08:48:44;;;;;;;23.92;19.63;;;;;;;17.34;65.36;101229.88;4911932;28;101399;-85
2021/10/07 08:51:09;;;;;;;22.02;19.67;;;;;;;17.12;65.74;101225.56;4928491;28;100484;-85
2021/10/07 08:53:35;;;;;;;25.67;19.05;;;;;;;17.10;65.64;101226.56;4914790;28;97253;-86
2021/10/07 08:56:01;;;;;;;24.52;19.52;;;;;;;17.15;66.21;101229.88;4916722;28;97733;-85
2021/10/07 08:58:28;;;;;;;24.50;20.35;;;;;;;17.15;66.00;101224.56;4918570;28;101364;-86
2021/10/07 09:00:54;;;;;;;23.15;20.48;;;;;;;17.15;65.70;101222.75;4911525;28;102062;-86
2021/10/07 09:03:22;;;;;;;24.65;21.73;;;;;;;17.31;65.45;101235.31;4951164;28;97357;-85
2021/10/07 09:05:48;;;;;;;30.60;21.83;;;;;;;17.40;64.97;101232.22;4933797;28;97038;-86
2021/10/07 09:08:15;;;;;;;31.70;22.98;;;;;;;17.54;64.67;101231.53;4915032;28;100646;-86
2021/10/07 09:10:55;;;;;;;26.45;21.75;;;;;;;17.79;63.47;101223.28;4915188;28;101351;-86
2021/10/07 09:13:25;;;;;;;25.67;22.15;;;;;;;17.82;63.36;101223.13;4928202;28;97064;-84
2021/10/07 09:15:54;;;;;;;30.08;21.48;;;;;;;17.58;64.05;101231.31;4942980;28;97645;-83
2021/10/07 09:18:20;;;;;;;26.23;21.65;;;;;;;17.45;64.41;101232.00;4928150;28;102263;-84
2021/10/07 09:20:48;;;;;;;28.95;22.23;;;;;;;17.39;64.22;101238.44;4914558;28;101454;-84
2021/10/07 09:23:29;;;;;;;27.35;22.90;;;;;;;17.24;64.90;101236.53;4912327;28;96763;-86
2021/10/07 09:26:05;;;;;;;26.83;22.55;;;;;;;17.10;64.61;101230.06;4926658;28;97196;-84
2021/10/07 09:29:01;;;;;;;28.02;23.10;;;;;;;17.01;64.83;101235.81;4931918;28;97762;-83
2021/10/07 09:31:32;;;;;;;30.60;23.63;;;;;;;16.91;65.35;101235.38;4905675;28;101458;-86
2021/10/07 09:34:05;;;;;;;28.33;23.60;;;;;;;16.88;65.73;101235.53;4901991;28;98043;-87
2021/10/07 09:36:32;;;;;;;31.02;26.00;;;;;;;16.81;65.80;101228.75;4900927;28;97387;-86
2021/10/07 09:38:58;;;;;;;35.08;24.83;;;;;;;16.80;65.99;101235.00;4901491;28;101134;-85
2021/10/07 09:41:29;;;;;;;31.35;26.27;;;;;;;16.75;65.97;101245.81;4917913;28;100995;-82
2021/10/07 09:43:55;;;;;;;30.00;25.25;;;;;;;16.64;66.28;101240.13;4889326;28;97223;-86
2021/10/07 09:46:41;;;;;;;32.60;26.48;;;;;;;16.60;65.98;101246.47;4905294;28;97344;-88
2021/10/07 09:49:15;;;;;;;30.58;27.02;;;;;;;16.57;66.33;101248.41;4916326;28;98687;-85
2021/10/07 09:51:53;;;;;;;36.88;30.10;;;;;;;16.48;66.60;101244.38;4914157;28;97132;-88
2021/10/07 09:54:20;;;;;;;33.20;28.67;;;;;;;16.47;66.56;101254.13;4912908;28;98180;-85
2021/10/07 09:56:55;;;;;;;31.48;27.10;;;;;;;16.38;67.13;101257.19;4901558;28;97246;-85
2021/10/07 09:59:23;;;;;;;42.42;34.05;;;;;;;16.42;66.79;101250.81;4900649;28;99942;-85
2021/10/07 10:01:54;;;;;;;40.22;34.67;;;;;;;16.39;66.70;101260.69;4902105;28;97543;-85
2021/10/07 10:04:22;;;;;;;36.42;32.22;;;;;;;16.37;67.01;101263.38;4918666;28;97523;-86
2021/10/07 10:06:49;;;;;;;37.60;31.08;;;;;;;16.34;66.92;101266.16;4895075;28;96897;-85
2021/10/07 10:09:21;;;;;;;40.70;34.58;;;;;;;16.35;66.87;101267.91;4899689;28;100361;-86
2021/10/07 10:11:46;;;;;;;40.97;31.58;;;;;;;16.14;67.32;101264.34;4915625;28;97397;-86
2021/10/07 10:14:12;;;;;;;37.60;31.70;;;;;;;16.26;67.72;101271.81;4928670;28;96837;-87
2021/10/07 10:16:38;;;;;;;37.00;29.30;;;;;;;16.26;67.63;101269.16;4910686;28;96882;-88
2021/10/07 10:19:04;;;;;;;35.60;29.92;;;;;;;16.14;67.09;101267.00;4909764;28;99701;-88
2021/10/07 10:24:20;;;;;;;42.95;31.83;;;;;;;15.95;67.85;101277.53;5007137;22;97476;-79
2021/10/07 10:26:59;;;;;;;39.63;32.75;;;;;;;15.93;67.80;101274.06;4944852;28;97931;-87
2021/10/07 10:29:25;;;;;;;41.08;32.75;;;;;;;15.88;67.81;101269.88;4923016;28;100157;-85
2021/10/07 10:31:52;;;;;;;43.10;31.65;;;;;;;15.88;67.57;101272.53;4943716;28;100634;-84
2021/10/07 10:34:18;;;;;;;41.70;31.00;;;;;;;15.89;67.60;101275.13;4921825;28;96845;-85
2021/10/07 10:36:49;;;;;;;40.08;31.15;;;;;;;15.92;67.55;101280.31;4960489;28;96697;-86
2021/10/07 10:39:18;;;;;;;41.95;30.73;;;;;;;15.94;67.58;101280.22;4922299;28;99455;-85
2021/10/07 10:42:06;;;;;;;41.13;30.02;;;;;;;15.98;67.66;101281.84;4938081;28;97104;-86
2021/10/07 10:44:51;;;;;;;38.08;29.85;;;;;;;15.94;67.08;101281.09;4921846;28;97035;-84
2021/10/07 10:47:18;;;;;;;39.17;32.33;;;;;;;15.94;66.80;101274.91;4936239;28;96947;-82
2021/10/07 10:50:23;;;;;;;39.13;29.88;;;;;;;15.95;67.05;101279.31;4940160;28;99614;-80
2021/10/07 10:52:53;;;;;;;44.30;33.03;;;;;;;15.96;66.84;101279.25;4944038;28;100697;-81
2021/10/07 10:55:23;;;;;;;41.20;31.52;;;;;;;15.98;67.22;101281.84;4939097;28;97207;-82
2021/10/07 10:57:50;;;;;;;42.30;30.35;;;;;;;16.05;67.08;101276.19;4957597;28;97221;-83
2021/10/07 11:00:21;;;;;;;37.38;29.95;;;;;;;16.04;67.04;101287.72;4918807;28;100747;-81
2021/10/07 11:02:48;;;;;;;41.20;29.27;;;;;;;16.12;66.92;101282.13;4949904;28;100579;-83
2021/10/07 11:05:16;;;;;;;38.70;28.42;;;;;;;16.18;66.43;101281.88;4941650;28;96982;-81
2021/10/07 11:07:42;;;;;;;37.30;30.63;;;;;;;16.21;66.79;101281.72;4953742;28;96807;-86
2021/10/07 11:10:22;;;;;;;42.95;30.55;;;;;;;16.29;66.29;101281.41;4927041;28;99168;-84
2021/10/07 11:12:55;;;;;;;36.85;29.13;;;;;;;16.39;65.93;101293.34;4921160;28;100848;-85
2021/10/07 11:15:22;;;;;;;48.63;28.75;;;;;;;16.34;65.96;101283.84;4928711;28;97192;-85
2021/10/07 11:17:49;;;;;;;34.38;27.77;;;;;;;16.41;65.37;101288.84;4949947;28;97319;-85
2021/10/07 11:20:19;;;;;;;36.97;28.85;;;;;;;16.50;65.09;101280.47;4931836;28;99809;-84
2021/10/07 11:23:03;;;;;;;41.55;28.77;;;;;;;16.54;64.57;101283.84;4920629;28;100185;-85
2021/10/07 11:25:28;;;;;;;41.80;31.23;;;;;;;16.62;64.77;101278.22;4927439;28;97690;-85
2021/10/07 11:27:54;;;;;;;40.80;31.95;;;;;;;16.77;64.73;101277.56;4917996;28;96744;-85
2021/10/07 11:30:21;;;;;;;42.95;32.25;;;;;;;17.03;64.47;101270.22;4917594;28;100583;-85
2021/10/07 11:32:47;;;;;;;43.15;30.33;;;;;;;17.51;63.37;101280.34;4924189;28;101226;-85
2021/10/07 11:35:15;;;;;;;40.95;32.83;;;;;;;17.76;62.87;101280.00;4927902;28;96784;-88
2021/10/07 11:37:52;;;;;;;47.97;33.03;;;;;;;17.82;62.00;101279.75;4920849;28;97167;-86
2021/10/07 11:40:20;;;;;;;40.03;32.25;;;;;;;17.84;62.11;101277.03;4937254;28;100223;-86
2021/10/07 11:42:46;;;;;;;44.25;31.55;;;;;;;17.98;63.55;101271.88;4951569;28;98457;-80
2021/10/07 11:45:42;;;;;;;40.13;32.90;;;;;;;18.00;62.07;101275.31;4931167;28;97166;-80
2021/10/07 11:48:08;;;;;;;39.72;32.50;;;;;;;17.98;62.51;101271.03;4910959;28;96877;-78
2021/10/07 11:50:38;;;;;;;42.92;32.67;;;;;;;18.02;62.42;101278.75;4924767;28;98025;-89
2021/10/07 11:53:05;;;;;;;36.60;30.38;;;;;;;17.91;62.53;101275.75;4917172;28;101425;-87
2021/10/07 11:55:31;;;;;;;45.47;33.00;;;;;;;17.80;62.44;101275.44;4933089;28;97214;-91
2021/10/07 11:57:59;;;;;;;41.70;31.10;;;;;;;17.70;62.89;101275.00;4920489;28;96899;-91
2021/10/07 12:00:41;;;;;;;38.67;31.75;;;;;;;17.65;63.23;101284.97;4930005;28;101786;-93
2021/10/07 12:03:15;;;;;;;45.78;33.72;;;;;;;17.63;62.96;101273.59;4935901;28;101009;-87
2021/10/07 12:05:42;;;;;;;43.22;34.80;;;;;;;17.75;63.04;101286.25;4927129;28;97301;-87
2021/10/07 12:08:11;;;;;;;50.75;35.95;;;;;;;17.85;62.83;101282.25;4932551;28;96976;-86
2021/10/07 12:10:42;;;;;;;43.45;33.50;;;;;;;18.04;62.50;101291.97;4948230;28;98399;-87
2021/10/07 12:13:10;;;;;;;45.50;34.47;;;;;;;18.01;62.04;101285.00;4923431;28;100724;-87
2021/10/07 12:15:37;;;;;;;43.28;34.13;;;;;;;17.87;61.84;101293.66;4934564;28;97137;-85
2021/10/07 12:18:05;;;;;;;43.45;34.55;;;;;;;17.78;61.78;101293.25;4921026;28;97037;-87
2021/10/07 12:20:30;;;;;;;40.70;33.15;;;;;;;17.66;62.30;101289.38;4931967;28;101348;-87
2021/10/07 12:23:00;;;;;;;45.97;34.45;;;;;;;17.61;62.23;101294.88;4925940;28;101205;-87
2021/10/07 12:25:26;;;;;;;42.25;32.45;;;;;;;17.43;62.39;101296.63;4914332;28;97598;-87
2021/10/07 12:27:51;;;;;;;43.13;33.75;;;;;;;17.27;63.00;101290.31;4920455;28;96996;-87
2021/10/07 12:30:17;;;;;;;43.95;36.05;;;;;;;17.22;63.29;101292.34;4910306;28;102919;-86
2021/10/07 12:32:42;;;;;;;39.92;32.13;;;;;;;17.25;63.31;101286.88;4902398;28;101446;-87
2021/10/07 12:35:10;;;;;;;42.85;33.95;;;;;;;17.17;63.30;101292.53;4891833;28;96866;-87
2021/10/07 12:37:39;;;;;;;37.30;31.77;;;;;;;17.20;62.91;101294.19;4914486;28;97230;-90
2021/10/07 12:40:05;;;;;;;37.67;31.88;;;;;;;17.14;62.95;101294.47;4909155;28;101488;-92
2021/10/07 12:42:32;;;;;;;37.47;29.98;;;;;;;17.06;62.78;101286.84;4896768;28;100405;-83
2021/10/07 12:45:00;;;;;;;34.40;29.58;;;;;;;17.08;62.82;101290.31;4901978;28;96746;-92
2021/10/07 12:47:31;;;;;;;36.28;27.50;;;;;;;17.08;62.99;101285.00;4903577;28;97027;-92
2021/10/07 12:50:15;;;;;;;37.15;28.30;;;;;;;17.02;62.83;101287.94;4907000;28;100472;-88
2021/10/07 12:52:43;;;;;;;44.88;34.70;;;;;;;16.95;62.89;101287.34;4887483;28;97433;-88
2021/10/07 12:55:13;;;;;;;43.35;34.30;;;;;;;16.97;62.94;101285.50;4899451;28;97259;-89
2021/10/07 12:57:49;;;;;;;45.80;35.47;;;;;;;17.02;63.08;101289.75;4902973;28;96899;-87
2021/10/07 13:00:27;;;;;;;52.60;37.20;;;;;;;16.91;63.46;101291.06;4909781;28;100995;-88
2021/10/07 13:02:54;;;;;;;38.72;33.42;;;;;;;16.84;63.57;101291.41;4914748;28;97532;-88
2021/10/07 13:05:26;;;;;;;46.90;36.65;;;;;;;16.88;64.11;101288.56;4893247;28;96921;-87
2021/10/07 13:07:53;;;;;;;44.55;33.47;;;;;;;16.90;63.98;101285.81;4917308;28;97240;-88
2021/10/07 13:10:18;;;;;;;44.00;32.35;;;;;;;16.84;63.88;101294.94;4914760;28;100418;-87
2021/10/07 13:12:44;;;;;;;39.50;30.75;;;;;;;16.85;63.71;101293.16;4898564;28;100035;-89
2021/10/07 13:15:10;;;;;;;37.97;30.73;;;;;;;16.81;63.94;101294.19;4897836;28;97489;-88
2021/10/07 13:17:35;;;;;;;35.40;29.45;;;;;;;16.80;64.16;101297.78;4899371;28;97037;-88
2021/10/07 13:20:02;;;;;;;36.92;29.70;;;;;;;16.84;63.71;101300.25;4902630;28;99657;-91
2021/10/07 13:22:53;;;;;;;34.65;27.30;;;;;;;16.81;64.17;101289.75;4917001;28;100725;-92
2021/10/07 13:28:28;;;;;;;39.28;30.98;;;;;;;16.75;64.39;101300.59;4944108;23;97829;-88
2021/10/07 13:30:53;;;;;;;41.75;30.98;;;;;;;16.89;64.88;101302.69;4909527;28;96863;-85
2021/10/07 13:33:19;;;;;;;36.78;31.38;;;;;;;16.95;64.35;101302.41;4910341;28;101522;-84
2021/10/07 13:35:45;;;;;;;37.63;29.80;;;;;;;16.93;64.05;101304.28;4914243;28;97288;-86
2021/10/07 13:38:11;;;;;;;43.78;32.17;;;;;;;16.87;64.16;101302.75;4914420;28;96886;-86
2021/10/07 13:40:36;;;;;;;37.88;30.95;;;;;;;16.86;63.86;101308.13;4919096;28;101380;-87
2021/10/07 13:43:03;;;;;;;42.45;29.85;;;;;;;16.84;64.16;101316.16;4919222;28;100430;-88
2021/10/07 13:45:29;;;;;;;30.27;27.00;;;;;;;16.82;64.14;101315.34;4917686;28;97015;-89
2021/10/07 13:47:58;;;;;;;38.58;28.15;;;;;;;16.83;63.83;101321.50;4909331;28;96886;-88
2021/10/07 13:50:24;;;;;;;37.50;29.45;;;;;;;16.78;64.15;101315.53;4909632;28;101360;-88
2021/10/07 13:52:50;;;;;;;35.80;28.15;;;;;;;16.71;64.21;101331.69;4905323;28;100025;-86
2021/10/07 13:55:16;;;;;;;34.35;30.60;;;;;;;16.69;63.88;101338.84;4902542;28;97474;-88
2021/10/07 13:57:42;;;;;;;33.85;28.73;;;;;;;16.65;63.92;101336.41;4925406;28;96902;-88
2021/10/07 14:00:08;;;;;;;30.88;26.75;;;;;;;16.66;63.69;101332.81;4901779;28;101253;-90
2021/10/07 14:02:34;;;;;;;30.75;27.20;;;;;;;16.57;64.19;101327.91;4910376;28;101815;-89
2021/10/07 14:05:00;;;;;;;42.33;30.48;;;;;;;16.55;64.43;101325.34;4923094;28;96781;-88
2021/10/07 14:07:25;;;;;;;34.53;29.23;;;;;;;16.60;64.72;101331.28;4899385;28;97237;-88
2021/10/07 14:09:51;;;;;;;31.90;27.90;;;;;;;16.61;64.50;101338.34;4914613;28;97539;-88
2021/10/07 14:12:18;;;;;;;39.38;29.00;;;;;;;16.53;64.96;101337.78;4907447;28;98891;-87
2021/10/07 14:14:44;;;;;;;32.60;29.00;;;;;;;16.52;64.52;101338.72;4911450;28;96936;-88
2021/10/07 14:17:09;;;;;;;32.08;28.58;;;;;;;16.47;65.03;101338.06;4919445;28;96833;-87
2021/10/07 14:19:35;;;;;;;34.53;27.60;;;;;;;16.45;65.22;101340.75;4917351;28;97588;-87
2021/10/07 14:22:01;;;;;;;35.30;29.15;;;;;;;16.47;65.32;101340.72;4902338;28;99222;-87
2021/10/07 14:24:26;;;;;;;34.05;29.60;;;;;;;16.40;65.42;101345.38;4894511;28;97193;-87
2021/10/07 14:26:52;;;;;;;34.47;28.10;;;;;;;16.38;65.06;101341.09;4882483;28;96891;-89
2021/10/07 14:29:18;;;;;;;32.95;27.77;;;;;;;16.38;65.68;101344.63;4912873;28;100507;-89
2021/10/07 14:31:44;;;;;;;29.48;25.65;;;;;;;16.42;65.52;101346.19;4909544;28;97437;-87
2021/10/07 14:34:10;;;;;;;30.38;26.98;;;;;;;16.40;65.26;101348.03;4898517;28;97155;-88
2021/10/07 14:36:35;;;;;;;40.15;27.88;;;;;;;16.39;65.40;101346.31;4902340;28;97697;-88
2021/10/07 14:39:02;;;;;;;31.98;25.13;;;;;;;16.39;65.54;101345.47;4902414;28;98661;-89
2021/10/07 14:41:27;;;;;;;33.72;26.05;;;;;;;16.44;65.31;101349.66;4916613;28;100950;-87
2021/10/07 14:43:53;;;;;;;30.10;26.08;;;;;;;16.40;65.16;101348.03;4933899;28;96887;-89
2021/10/07 14:46:19;;;;;;;30.25;25.38;;;;;;;16.38;65.08;101355.22;4900099;28;97134;-87
2021/10/07 14:48:44;;;;;;;32.65;25.83;;;;;;;16.33;65.39;101354.53;4900834;28;99706;-86
2021/10/07 14:51:10;;;;;;;32.03;26.30;;;;;;;16.29;65.61;101351.16;4903341;28;98967;-87
2021/10/07 14:53:36;;;;;;;32.22;27.98;;;;;;;16.30;65.52;101359.97;4902564;28;97653;-86
2021/10/07 14:56:02;;;;;;;30.67;27.48;;;;;;;16.25;65.67;101352.19;4912633;28;97001;-87
2021/10/07 14:58:27;;;;;;;30.67;26.48;;;;;;;16.27;65.64;101363.59;4889095;28;99449;-87
2021/10/07 15:00:53;;;;;;;31.55;26.83;;;;;;;16.27;65.62;101360.94;4917423;28;99683;-87
2021/10/07 15:03:18;;;;;;;31.00;26.80;;;;;;;16.19;65.84;101359.53;4903730;28;96800;-87
2021/10/07 15:05:44;;;;;;;32.38;27.60;;;;;;;16.15;66.12;101364.09;4908107;28;96967;-88
2021/10/07 15:08:09;;;;;;;31.95;27.42;;;;;;;16.19;66.41;101359.53;4898056;28;99729;-86
2021/10/07 15:10:36;;;;;;;32.13;25.85;;;;;;;16.20;66.00;101356.84;4917565;28;99172;-86
2021/10/07 15:13:02;;;;;;;32.53;27.75;;;;;;;16.17;66.45;101364.03;4931645;28;97245;-87
2021/10/07 15:15:30;;;;;;;32.40;27.77;;;;;;;16.11;66.33;101361.63;4932033;28;96914;-86
2021/10/07 15:17:55;;;;;;;32.42;27.38;;;;;;;16.14;66.35;101369.44;4911087;28;100296;-86
2021/10/07 15:20:26;;;;;;;31.55;27.45;;;;;;;16.18;66.37;101381.66;4913101;28;99639;-87
2021/10/07 15:22:53;;;;;;;34.15;28.35;;;;;;;16.18;66.26;101377.22;4903585;28;97032;-85
2021/10/07 15:25:18;;;;;;;33.17;27.73;;;;;;;16.18;66.50;101379.88;4916204;28;97091;-87
2021/10/07 15:27:44;;;;;;;41.95;29.65;;;;;;;16.16;65.97;101375.56;4924913;28;99487;-87
2021/10/07 15:30:10;;;;;;;33.80;28.25;;;;;;;16.07;66.69;101375.00;4923784;28;99021;-87
2021/10/07 15:32:35;;;;;;;32.60;26.67;;;;;;;16.12;66.28;101377.47;4911040;28;96673;-87
2021/10/07 15:35:01;;;;;;;32.47;27.45;;;;;;;16.07;66.18;101377.66;4934310;28;97621;-86
2021/10/07 15:37:27;;;;;;;34.80;28.20;;;;;;;16.09;66.35;101387.34;4909810;28;99644;-87
2021/10/07 15:39:52;;;;;;;38.50;29.05;;;;;;;16.09;66.42;101382.91;4902480;28;97747;-86
2021/10/07 15:42:18;;;;;;;34.63;27.85;;;;;;;16.06;66.76;101388.31;4918738;28;96748;-87
2021/10/07 15:44:44;;;;;;;38.70;29.42;;;;;;;16.03;66.52;101389.31;4895376;28;96803;-86
2021/10/07 15:47:10;;;;;;;32.70;27.65;;;;;;;16.05;66.43;101389.22;4918774;28;99637;-86
2021/10/07 15:49:36;;;;;;;34.95;28.40;;;;;;;16.01;66.45;101385.84;4927090;28;99601;-86
2021/10/07 15:52:02;;;;;;;39.15;29.30;;;;;;;16.03;66.29;101397.25;4912340;28;96724;-85
2021/10/07 15:54:27;;;;;;;33.60;25.55;;;;;;;16.01;66.76;101387.63;4933089;28;97383;-87
2021/10/07 15:56:54;;;;;;;36.72;28.40;;;;;;;16.01;66.62;101396.44;4926971;28;99737;-86
2021/10/07 15:59:20;;;;;;;41.95;29.45;;;;;;;16.01;66.48;101391.13;4932789;28;99365;-85
2021/10/07 16:01:49;;;;;;;34.60;28.95;;;;;;;16.03;66.28;101394.59;4928718;28;96735;-85
2021/10/07 16:04:15;;;;;;;32.38;28.23;;;;;;;15.98;66.80;101393.06;4933525;28;97692;-87
2021/10/07 16:06:42;;;;;;;60.22;30.95;;;;;;;16.02;66.51;101403.44;4935919;28;99717;-80
2021/10/07 16:09:08;;;;;;;40.05;29.90;;;;;;;15.97;66.32;101394.84;4908574;28;101166;-84
2021/10/07 16:11:34;;;;;;;38.30;28.67;;;;;;;15.96;66.30;101408.13;4917308;28;97646;-86
2021/10/07 16:14:00;;;;;;;39.63;30.67;;;;;;;15.88;66.69;101411.06;4938557;28;97917;-85
2021/10/07 16:16:25;;;;;;;36.45;28.88;;;;;;;15.83;66.78;101413.06;4903652;28;99085;-84
2021/10/07 16:18:51;;;;;;;50.70;30.33;;;;;;;15.88;66.77;101418.16;4910876;28;96951;-81
2021/10/07 16:21:20;;;;;;;39.40;29.90;;;;;;;15.85;67.24;101408.53;4909632;28;96945;-84
2021/10/07 16:23:46;;;;;;;38.13;29.30;;;;;;;15.83;66.94;101421.00;4923332;28;96911;-83
2021/10/07 16:26:12;;;;;;;43.05;31.13;;;;;;;15.94;67.00;101418.78;4920349;28;100465;-82
2021/10/07 16:28:39;;;;;;;42.03;31.42;;;;;;;15.92;66.75;101422.44;4926653;28;96910;-85
2021/10/07 16:31:06;;;;;;;40.50;30.17;;;;;;;15.87;67.18;101427.03;4942755;28;96546;-81
2021/10/07 16:33:35;;;;;;;45.15;32.85;;;;;;;15.78;67.36;101420.31;4915076;28;96878;-83
2021/10/07 16:36:01;;;;;;;43.28;32.42;;;;;;;15.76;67.43;101420.34;4924892;28;100063;-82
2021/10/07 16:38:26;;;;;;;48.58;34.53;;;;;;;15.82;67.67;101427.19;4914496;28;99019;-82
2021/10/07 16:40:54;;;;;;;44.97;32.33;;;;;;;15.76;67.64;101425.63;4911649;28;97035;-84
2021/10/07 17:08:07;;;;;;;43.30;33.15;;;;;;;15.59;68.67;101457.13;5549368;22;98438;-80
2021/10/07 17:10:33;;;;;;;41.85;31.40;;;;;;;15.53;68.72;101462.66;4879492;28;101148;-81
2021/10/07 17:12:59;;;;;;;40.47;31.98;;;;;;;15.44;68.89;101466.50;4868391;28;101102;-85
2021/10/07 17:15:25;;;;;;;39.50;31.90;;;;;;;15.45;68.92;101462.09;4876302;28;96833;-80
2021/10/07 17:17:51;;;;;;;47.15;33.63;;;;;;;15.43;68.77;101469.22;4903304;28;96646;-81
2021/10/07 17:20:17;;;;;;;36.80;31.58;;;;;;;15.56;68.90;101473.13;4892730;28;100160;-80
2021/10/07 17:22:44;;;;;;;39.42;30.58;;;;;;;15.53;68.29;101474.13;4893567;28;100540;-81
2021/10/07 17:25:11;;;;;;;35.90;30.63;;;;;;;15.43;68.83;101471.88;4892842;28;96706;-81
2021/10/07 17:27:45;;;;;;;38.22;31.05;;;;;;;15.42;69.35;101478.06;4877373;28;96777;-84
2021/10/07 17:32:53;;;;;;;39.53;31.70;;;;;;;15.37;69.08;101479.09;5734472;23;99000;-84
2021/10/07 17:35:19;;;;;;;42.63;32.63;;;;;;;15.34;69.24;101483.63;5518459;23;97994;-84
2021/10/07 17:37:46;;;;;;;40.10;31.20;;;;;;;15.28;69.46;101478.56;5247513;23;98303;-85
2021/10/07 19:11:20;;;;;;;52.70;37.00;;;;;;;14.73;70.23;101499.81;4958219;28;95737;-82
2021/10/07 19:14:23;;;;;;;56.42;37.88;;;;;;;14.69;70.29;101493.75;4912538;28;97589;-80
2021/10/07 19:20:39;;;;;;;54.28;37.20;;;;;;;14.61;70.70;101487.84;4957989;28;95923;-82
2021/10/07 19:54:54;;;;;;;44.65;32.53;;;;;;;14.55;70.04;101495.97;4996295;28;95999;-80
2021/10/07 20:13:32;;;;;;;48.10;29.25;;;;;;;14.50;69.57;101493.44;5871916;23;99380;-83
2021/10/07 20:18:49;;;;;;;42.63;28.33;;;;;;;14.42;69.42;101491.97;5926208;23;98671;-83
2021/10/07 20:37:16;;;;;;;34.85;25.85;;;;;;;14.30;69.12;101489.69;6022472;23;98837;31
2021/10/07 21:19:18;;;;;;;37.20;23.25;;;;;;;13.90;68.01;101512.00;6047568;22;98935;31
2021/10/07 21:21:44;;;;;;;35.03;22.00;;;;;;;13.96;68.17;101502.16;4871716;28;97240;-87
2021/10/07 21:24:10;;;;;;;28.42;21.55;;;;;;;13.82;68.21;101507.84;4862187;28;97356;-87
2021/10/07 21:26:35;;;;;;;30.05;22.02;;;;;;;13.81;68.48;101511.34;4860795;28;101767;-86
2021/10/07 21:29:01;;;;;;;29.25;21.73;;;;;;;13.80;68.26;101509.63;4859544;28;101136;-87
2021/10/07 21:31:26;;;;;;;31.08;21.10;;;;;;;13.73;67.90;101505.47;4863263;28;97098;-87
2021/10/07 21:33:52;;;;;;;30.83;21.80;;;;;;;13.80;68.12;101521.97;4863271;28;97019;-86